GMMN Airport Information

Runway Information
Runway 17L Length 12205 ft width 148 ft
Elevation 633 ft Threshold 0 ft Heading 164
Runway 35R Length 12205 ft Width 148 ft
Elevation 656 ft Threshold 0 ft Heading 344
Runway 17R Length 12205 ft width 148 ft
Elevation 636 ft Threshold 0 ft Heading 164
Runway 35L Length 12205 ft Width 148 ft
Elevation 656 ft Threshold 0 ft Heading 344
Airport Frequencies
Type APP Name APP Frequency 121.3 MHZ
Type ATIS Name ATIS Frequency 126.4 MHZ
Type TWR Name TWR Frequency 118.5 MHZ
Airport Navaids
Type VOR-DME Name Casablanca Frequency 114000 KHZ
Airport Weather Information & NOTAM
ADDS - METARS form results

(0132 UTC 19 August 2018)
 
METAR text: GMMN 190130Z 29004KT 260V320 1000 R17L/1100VP2000U BKN004 22/22 Q1012 NOSIG
Conditions at: GMMN (NOUASSEUR/CASABL, MA) observed 0130 UTC 19 August 2018
Temperature: 22.0°C (72°F)
Dewpoint: 22.0°C (72°F) [RH = 100%]
Pressure (altimeter): 29.88 inches Hg (1012.0 mb)
Winds: from the WNW (290 degrees) at 5 MPH (4 knots; 2.1 m/s)
Visibility: 0.62 miles (1.00 km)
Ceiling: 400 feet AGL
Clouds: broken clouds at 400 feet AGL
Weather: no significant weather observed at this time

METAR text: GMMN 190100Z 33006KT 1100 0700 R35R/1000VP2000D FEW020 22/22 Q1012 NOSIG
Conditions at: GMMN (NOUASSEUR/CASABL, MA) observed 0100 UTC 19 August 2018
Temperature: 22.0°C (72°F)
Dewpoint: 22.0°C (72°F) [RH = 100%]
Pressure (altimeter): 29.88 inches Hg (1012.0 mb)
Winds: from the NNW (330 degrees) at 7 MPH (6 knots; 3.1 m/s)
Visibility: 0.68 miles (1.09 km)
Ceiling: at least 12,000 feet AGL
Clouds: few clouds at 2000 feet AGL
Weather: no significant weather observed at this time